sensor_id;sensor_type;location;lat;lon;timestamp;temperature;humidity
71188;DHT22;58893;53.130;8.158;2022-11-15T00:00:43;11.00;75.90
71188;DHT22;58893;53.130;8.158;2022-11-15T00:03:08;11.00;75.90
71188;DHT22;58893;53.130;8.158;2022-11-15T00:05:35;10.90;75.80
71188;DHT22;58893;53.130;8.158;2022-11-15T00:08:01;10.90;75.90
71188;DHT22;58893;53.130;8.158;2022-11-15T00:10:27;10.90;75.90
71188;DHT22;58893;53.130;8.158;2022-11-15T00:12:52;10.90;76.00
71188;DHT22;58893;53.130;8.158;2022-11-15T00:15:18;10.90;76.00
71188;DHT22;58893;53.130;8.158;2022-11-15T00:17:44;10.90;76.00
71188;DHT22;58893;53.130;8.158;2022-11-15T00:20:09;10.90;76.10
71188;DHT22;58893;53.130;8.158;2022-11-15T00:22:37;10.80;75.90
71188;DHT22;58893;53.130;8.158;2022-11-15T00:25:02;10.80;75.90
71188;DHT22;58893;53.130;8.158;2022-11-15T00:27:28;10.80;75.90
71188;DHT22;58893;53.130;8.158;2022-11-15T00:29:54;10.80;75.90
71188;DHT22;58893;53.130;8.158;2022-11-15T00:32:19;10.80;75.80
71188;DHT22;58893;53.130;8.158;2022-11-15T00:34:45;10.70;75.70
71188;DHT22;58893;53.130;8.158;2022-11-15T00:37:11;10.70;75.70
71188;DHT22;58893;53.130;8.158;2022-11-15T00:39:36;10.70;75.70
71188;DHT22;58893;53.130;8.158;2022-11-15T00:42:02;10.70;75.80
71188;DHT22;58893;53.130;8.158;2022-11-15T00:44:28;10.60;75.80
71188;DHT22;58893;53.130;8.158;2022-11-15T00:46:53;10.60;75.80
71188;DHT22;58893;53.130;8.158;2022-11-15T00:49:19;10.60;75.90
71188;DHT22;58893;53.130;8.158;2022-11-15T00:51:44;10.60;76.00
71188;DHT22;58893;53.130;8.158;2022-11-15T00:54:10;10.60;76.10
71188;DHT22;58893;53.130;8.158;2022-11-15T00:56:36;10.50;76.10
71188;DHT22;58893;53.130;8.158;2022-11-15T00:59:01;10.50;75.90
71188;DHT22;58893;53.130;8.158;2022-11-15T01:01:27;10.50;76.00
71188;DHT22;58893;53.130;8.158;2022-11-15T01:03:53;10.40;76.10
71188;DHT22;58893;53.130;8.158;2022-11-15T01:06:18;10.40;76.10
71188;DHT22;58893;53.130;8.158;2022-11-15T01:08:44;10.40;76.10
71188;DHT22;58893;53.130;8.158;2022-11-15T01:11:11;10.40;76.20
71188;DHT22;58893;53.130;8.158;2022-11-15T01:13:38;10.40;76.20
71188;DHT22;58893;53.130;8.158;2022-11-15T01:16:13;10.30;75.90
71188;DHT22;58893;53.130;8.158;2022-11-15T01:18:39;10.30;76.00
71188;DHT22;58893;53.130;8.158;2022-11-15T01:21:16;10.30;76.00
71188;DHT22;58893;53.130;8.158;2022-11-15T01:23:42;10.30;76.20
71188;DHT22;58893;53.130;8.158;2022-11-15T01:26:12;10.20;76.60
71188;DHT22;58893;53.130;8.158;2022-11-15T01:28:39;10.20;76.70
71188;DHT22;58893;53.130;8.158;2022-11-15T01:31:10;10.20;76.70
71188;DHT22;58893;53.130;8.158;2022-11-15T01:33:36;10.20;76.70
71188;DHT22;58893;53.130;8.158;2022-11-15T01:36:06;10.20;76.70
71188;DHT22;58893;53.130;8.158;2022-11-15T01:38:32;10.20;76.80
71188;DHT22;58893;53.130;8.158;2022-11-15T01:40:57;10.20;76.60
71188;DHT22;58893;53.130;8.158;2022-11-15T01:43:31;10.20;76.60
71188;DHT22;58893;53.130;8.158;2022-11-15T01:46:04;10.10;76.40
71188;DHT22;58893;53.130;8.158;2022-11-15T01:48:35;10.10;76.40
71188;DHT22;58893;53.130;8.158;2022-11-15T01:51:04;10.10;76.40
71188;DHT22;58893;53.130;8.158;2022-11-15T01:53:32;10.10;76.50
71188;DHT22;58893;53.130;8.158;2022-11-15T01:56:05;10.10;76.70
71188;DHT22;58893;53.130;8.158;2022-11-15T01:58:32;10.10;77.00
71188;DHT22;58893;53.130;8.158;2022-11-15T02:00:58;10.00;77.20
71188;DHT22;58893;53.130;8.158;2022-11-15T02:06:17;10.00;77.60
71188;DHT22;58893;53.130;8.158;2022-11-15T02:08:44;10.10;78.90
71188;DHT22;58893;53.130;8.158;2022-11-15T02:11:10;10.00;76.20
71188;DHT22;58893;53.130;8.158;2022-11-15T02:13:36;10.00;76.50
71188;DHT22;58893;53.130;8.158;2022-11-15T02:19:33;10.00;76.90
71188;DHT22;58893;53.130;8.158;2022-11-15T02:24:27;10.10;77.20
71188;DHT22;58893;53.130;8.158;2022-11-15T02:32:19;10.10;77.60
71188;DHT22;58893;53.130;8.158;2022-11-15T02:37:41;10.20;77.70
71188;DHT22;58893;53.130;8.158;2022-11-15T02:42:52;10.20;77.80
71188;DHT22;58893;53.130;8.158;2022-11-15T02:45:44;10.30;77.90
71188;DHT22;58893;53.130;8.158;2022-11-15T02:48:11;10.30;77.90
71188;DHT22;58893;53.130;8.158;2022-11-15T02:50:37;10.30;78.50
71188;DHT22;58893;53.130;8.158;2022-11-15T02:53:03;10.30;77.80
71188;DHT22;58893;53.130;8.158;2022-11-15T02:55:34;10.30;77.80
71188;DHT22;58893;53.130;8.158;2022-11-15T02:58:46;10.40;78.00
71188;DHT22;58893;53.130;8.158;2022-11-15T03:01:38;10.40;78.00
71188;DHT22;58893;53.130;8.158;2022-11-15T03:04:50;10.40;78.00
71188;DHT22;58893;53.130;8.158;2022-11-15T03:07:11;10.40;78.10
71188;DHT22;58893;53.130;8.158;2022-11-15T03:12:46;10.50;78.20
71188;DHT22;58893;53.130;8.158;2022-11-15T03:15:30;10.50;78.30
71188;DHT22;58893;53.130;8.158;2022-11-15T03:18:12;10.50;78.30
71188;DHT22;58893;53.130;8.158;2022-11-15T03:20:42;10.50;78.30
71188;DHT22;58893;53.130;8.158;2022-11-15T03:23:10;10.50;78.40
71188;DHT22;58893;53.130;8.158;2022-11-15T03:25:41;10.60;78.50
71188;DHT22;58893;53.130;8.158;2022-11-15T03:28:10;10.60;78.60
71188;DHT22;58893;53.130;8.158;2022-11-15T03:30:39;10.60;78.60
71188;DHT22;58893;53.130;8.158;2022-11-15T03:33:05;10.60;78.60
71188;DHT22;58893;53.130;8.158;2022-11-15T03:35:38;10.70;78.70
71188;DHT22;58893;53.130;8.158;2022-11-15T03:38:29;10.70;78.70
71188;DHT22;58893;53.130;8.158;2022-11-15T03:41:07;10.70;78.70
71188;DHT22;58893;53.130;8.158;2022-11-15T03:46:14;10.80;78.90
71188;DHT22;58893;53.130;8.158;2022-11-15T03:48:50;10.80;79.00
71188;DHT22;58893;53.130;8.158;2022-11-15T03:51:17;10.80;79.00
71188;DHT22;58893;53.130;8.158;2022-11-15T03:53:43;10.80;79.00
71188;DHT22;58893;53.130;8.158;2022-11-15T03:56:09;10.90;79.10
71188;DHT22;58893;53.130;8.158;2022-11-15T03:58:35;10.90;79.10
71188;DHT22;58893;53.130;8.158;2022-11-15T04:01:00;10.90;79.10
71188;DHT22;58893;53.130;8.158;2022-11-15T04:03:26;10.90;79.20
71188;DHT22;58893;53.130;8.158;2022-11-15T04:05:52;10.90;79.10
71188;DHT22;58893;53.130;8.158;2022-11-15T04:08:17;10.90;79.20
71188;DHT22;58893;53.130;8.158;2022-11-15T04:10:43;11.00;79.30
71188;DHT22;58893;53.130;8.158;2022-11-15T04:13:09;11.00;79.30
71188;DHT22;58893;53.130;8.158;2022-11-15T04:15:34;11.00;79.30
71188;DHT22;58893;53.130;8.158;2022-11-15T04:18:00;11.00;79.30
71188;DHT22;58893;53.130;8.158;2022-11-15T04:20:29;11.00;79.40
71188;DHT22;58893;53.130;8.158;2022-11-15T04:23:16;11.00;79.40
71188;DHT22;58893;53.130;8.158;2022-11-15T04:26:08;11.00;79.50
71188;DHT22;58893;53.130;8.158;2022-11-15T04:28:36;11.10;79.60
71188;DHT22;58893;53.130;8.158;2022-11-15T04:31:21;11.10;79.70
71188;DHT22;58893;53.130;8.158;2022-11-15T04:33:47;11.10;79.70
71188;DHT22;58893;53.130;8.158;2022-11-15T04:36:13;11.10;79.70
71188;DHT22;58893;53.130;8.158;2022-11-15T04:38:57;11.20;79.70
71188;DHT22;58893;53.130;8.158;2022-11-15T04:41:23;11.20;79.80
71188;DHT22;58893;53.130;8.158;2022-11-15T04:43:48;11.20;79.80
71188;DHT22;58893;53.130;8.158;2022-11-15T04:46:14;11.20;79.90
71188;DHT22;58893;53.130;8.158;2022-11-15T04:48:39;11.20;79.90
71188;DHT22;58893;53.130;8.158;2022-11-15T04:51:05;11.20;80.00
71188;DHT22;58893;53.130;8.158;2022-11-15T04:53:31;11.20;80.10
71188;DHT22;58893;53.130;8.158;2022-11-15T04:55:56;11.20;80.10
71188;DHT22;58893;53.130;8.158;2022-11-15T04:58:22;11.30;80.30
71188;DHT22;58893;53.130;8.158;2022-11-15T05:00:47;11.30;80.40
71188;DHT22;58893;53.130;8.158;2022-11-15T05:03:13;11.30;80.40
71188;DHT22;58893;53.130;8.158;2022-11-15T05:05:58;11.30;80.50
71188;DHT22;58893;53.130;8.158;2022-11-15T05:08:24;11.30;80.60
71188;DHT22;58893;53.130;8.158;2022-11-15T05:10:50;11.40;80.70
71188;DHT22;58893;53.130;8.158;2022-11-15T05:13:16;11.40;80.80
71188;DHT22;58893;53.130;8.158;2022-11-15T05:15:41;11.40;80.90
71188;DHT22;58893;53.130;8.158;2022-11-15T05:18:07;11.40;81.00
71188;DHT22;58893;53.130;8.158;2022-11-15T05:20:32;11.40;81.00
71188;DHT22;58893;53.130;8.158;2022-11-15T05:22:58;11.50;81.10
71188;DHT22;58893;53.130;8.158;2022-11-15T05:25:24;11.50;81.20
71188;DHT22;58893;53.130;8.158;2022-11-15T05:27:50;11.50;81.30
71188;DHT22;58893;53.130;8.158;2022-11-15T05:30:16;11.50;81.50
71188;DHT22;58893;53.130;8.158;2022-11-15T05:32:43;11.50;81.60
71188;DHT22;58893;53.130;8.158;2022-11-15T05:35:13;11.50;81.60
71188;DHT22;58893;53.130;8.158;2022-11-15T05:37:40;11.60;81.80
71188;DHT22;58893;53.130;8.158;2022-11-15T05:40:07;11.60;81.90
71188;DHT22;58893;53.130;8.158;2022-11-15T05:42:33;11.60;82.00
71188;DHT22;58893;53.130;8.158;2022-11-15T05:45:00;11.60;82.10
71188;DHT22;58893;53.130;8.158;2022-11-15T05:47:29;11.60;82.10
71188;DHT22;58893;53.130;8.158;2022-11-15T05:49:55;11.60;82.10
71188;DHT22;58893;53.130;8.158;2022-11-15T05:52:25;11.60;82.10
71188;DHT22;58893;53.130;8.158;2022-11-15T05:54:53;11.60;82.30
71188;DHT22;58893;53.130;8.158;2022-11-15T05:57:19;11.60;82.40
71188;DHT22;58893;53.130;8.158;2022-11-15T05:59:45;11.70;82.50
71188;DHT22;58893;53.130;8.158;2022-11-15T06:02:11;11.70;82.70
71188;DHT22;58893;53.130;8.158;2022-11-15T06:04:36;11.70;82.70
71188;DHT22;58893;53.130;8.158;2022-11-15T06:07:02;11.70;82.80
71188;DHT22;58893;53.130;8.158;2022-11-15T06:09:28;11.70;82.80
71188;DHT22;58893;53.130;8.158;2022-11-15T06:11:53;11.70;82.80
71188;DHT22;58893;53.130;8.158;2022-11-15T06:14:19;11.70;83.00
71188;DHT22;58893;53.130;8.158;2022-11-15T06:16:45;11.70;83.20
71188;DHT22;58893;53.130;8.158;2022-11-15T06:19:11;11.70;83.50
71188;DHT22;58893;53.130;8.158;2022-11-15T06:21:36;11.70;83.60
71188;DHT22;58893;53.130;8.158;2022-11-15T06:24:02;11.80;83.80
71188;DHT22;58893;53.130;8.158;2022-11-15T06:26:28;11.80;84.00
71188;DHT22;58893;53.130;8.158;2022-11-15T06:28:53;11.80;84.20
71188;DHT22;58893;53.130;8.158;2022-11-15T06:31:19;11.80;84.40
71188;DHT22;58893;53.130;8.158;2022-11-15T06:33:44;11.80;84.50
71188;DHT22;58893;53.130;8.158;2022-11-15T06:36:12;11.80;85.20
71188;DHT22;58893;53.130;8.158;2022-11-15T06:38:43;11.80;84.60
71188;DHT22;58893;53.130;8.158;2022-11-15T06:41:10;11.90;84.80
71188;DHT22;58893;53.130;8.158;2022-11-15T06:43:37;11.90;85.00
71188;DHT22;58893;53.130;8.158;2022-11-15T06:46:04;11.90;85.10
71188;DHT22;58893;53.130;8.158;2022-11-15T06:48:30;11.90;85.20
71188;DHT22;58893;53.130;8.158;2022-11-15T06:51:00;11.90;85.30
71188;DHT22;58893;53.130;8.158;2022-11-15T06:53:27;12.00;85.50
71188;DHT22;58893;53.130;8.158;2022-11-15T06:55:53;12.00;85.70
71188;DHT22;58893;53.130;8.158;2022-11-15T06:58:21;12.00;85.70
71188;DHT22;58893;53.130;8.158;2022-11-15T07:00:46;12.00;85.80
71188;DHT22;58893;53.130;8.158;2022-11-15T07:03:12;12.00;86.00
71188;DHT22;58893;53.130;8.158;2022-11-15T07:05:38;12.00;86.20
71188;DHT22;58893;53.130;8.158;2022-11-15T07:08:04;12.10;86.50
71188;DHT22;58893;53.130;8.158;2022-11-15T07:10:29;12.10;86.50
71188;DHT22;58893;53.130;8.158;2022-11-15T07:12:55;12.10;86.80
71188;DHT22;58893;53.130;8.158;2022-11-15T07:15:24;12.10;87.00
71188;DHT22;58893;53.130;8.158;2022-11-15T07:17:50;12.10;87.20
71188;DHT22;58893;53.130;8.158;2022-11-15T07:20:16;12.20;87.60
71188;DHT22;58893;53.130;8.158;2022-11-15T07:22:43;12.20;87.60
71188;DHT22;58893;53.130;8.158;2022-11-15T07:25:11;12.20;87.80
71188;DHT22;58893;53.130;8.158;2022-11-15T07:27:37;12.20;87.90
71188;DHT22;58893;53.130;8.158;2022-11-15T07:30:03;12.20;88.00
71188;DHT22;58893;53.130;8.158;2022-11-15T07:32:29;12.30;88.10
71188;DHT22;58893;53.130;8.158;2022-11-15T07:34:54;12.30;88.20
71188;DHT22;58893;53.130;8.158;2022-11-15T07:37:20;12.30;88.30
71188;DHT22;58893;53.130;8.158;2022-11-15T07:39:46;12.30;88.40
71188;DHT22;58893;53.130;8.158;2022-11-15T07:42:11;12.40;88.50
71188;DHT22;58893;53.130;8.158;2022-11-15T07:44:56;12.40;88.50
71188;DHT22;58893;53.130;8.158;2022-11-15T07:47:21;12.40;88.40
71188;DHT22;58893;53.130;8.158;2022-11-15T07:49:47;12.40;88.40
71188;DHT22;58893;53.130;8.158;2022-11-15T07:52:13;12.40;88.40
71188;DHT22;58893;53.130;8.158;2022-11-15T07:54:39;12.40;88.50
71188;DHT22;58893;53.130;8.158;2022-11-15T07:57:05;12.40;88.50
71188;DHT22;58893;53.130;8.158;2022-11-15T07:59:32;12.50;89.30
71188;DHT22;58893;53.130;8.158;2022-11-15T08:01:58;12.50;88.60
71188;DHT22;58893;53.130;8.158;2022-11-15T08:04:23;12.50;88.70
71188;DHT22;58893;53.130;8.158;2022-11-15T08:06:49;12.50;88.70
71188;DHT22;58893;53.130;8.158;2022-11-15T08:09:14;12.50;88.70
71188;DHT22;58893;53.130;8.158;2022-11-15T08:11:40;12.50;88.70
71188;DHT22;58893;53.130;8.158;2022-11-15T08:14:06;12.50;88.70
71188;DHT22;58893;53.130;8.158;2022-11-15T08:16:31;12.60;89.00
71188;DHT22;58893;53.130;8.158;2022-11-15T08:18:57;12.60;89.20
71188;DHT22;58893;53.130;8.158;2022-11-15T08:21:23;12.60;89.30
71188;DHT22;58893;53.130;8.158;2022-11-15T08:23:49;12.60;89.40
71188;DHT22;58893;53.130;8.158;2022-11-15T08:26:15;12.70;89.80
71188;DHT22;58893;53.130;8.158;2022-11-15T08:28:41;12.70;89.70
71188;DHT22;58893;53.130;8.158;2022-11-15T08:31:14;12.70;89.50
71188;DHT22;58893;53.130;8.158;2022-11-15T08:33:40;12.70;89.40
71188;DHT22;58893;53.130;8.158;2022-11-15T08:36:05;12.70;89.30
71188;DHT22;58893;53.130;8.158;2022-11-15T08:38:31;12.70;89.10
71188;DHT22;58893;53.130;8.158;2022-11-15T08:41:03;12.80;89.30
71188;DHT22;58893;53.130;8.158;2022-11-15T08:43:29;12.80;89.30
71188;DHT22;58893;53.130;8.158;2022-11-15T08:45:58;12.80;89.40
71188;DHT22;58893;53.130;8.158;2022-11-15T08:48:24;12.80;89.50
71188;DHT22;58893;53.130;8.158;2022-11-15T08:50:56;12.80;89.60
71188;DHT22;58893;53.130;8.158;2022-11-15T08:53:22;12.80;89.70
71188;DHT22;58893;53.130;8.158;2022-11-15T08:55:48;12.80;89.80
71188;DHT22;58893;53.130;8.158;2022-11-15T08:58:13;12.80;90.00
71188;DHT22;58893;53.130;8.158;2022-11-15T09:00:39;12.80;90.00
71188;DHT22;58893;53.130;8.158;2022-11-15T09:03:06;12.80;90.00
71188;DHT22;58893;53.130;8.158;2022-11-15T09:05:35;12.80;90.10
71188;DHT22;58893;53.130;8.158;2022-11-15T09:08:02;12.80;90.20
71188;DHT22;58893;53.130;8.158;2022-11-15T09:10:27;12.80;90.30
71188;DHT22;58893;53.130;8.158;2022-11-15T09:12:53;12.80;90.40
71188;DHT22;58893;53.130;8.158;2022-11-15T09:15:18;12.80;90.40
71188;DHT22;58893;53.130;8.158;2022-11-15T09:17:45;12.90;90.60
71188;DHT22;58893;53.130;8.158;2022-11-15T09:20:11;12.90;90.70
71188;DHT22;58893;53.130;8.158;2022-11-15T09:22:36;12.90;90.80
71188;DHT22;58893;53.130;8.158;2022-11-15T09:25:04;12.90;90.90
71188;DHT22;58893;53.130;8.158;2022-11-15T09:27:30;12.90;91.00
71188;DHT22;58893;53.130;8.158;2022-11-15T09:29:56;12.90;91.00
71188;DHT22;58893;53.130;8.158;2022-11-15T09:32:22;13.00;91.10
71188;DHT22;58893;53.130;8.158;2022-11-15T09:34:49;13.00;91.20
71188;DHT22;58893;53.130;8.158;2022-11-15T09:37:15;13.00;91.20
71188;DHT22;58893;53.130;8.158;2022-11-15T09:39:40;13.00;91.30
71188;DHT22;58893;53.130;8.158;2022-11-15T09:45:20;13.00;91.40
71188;DHT22;58893;53.130;8.158;2022-11-15T09:50:47;13.10;91.50
71188;DHT22;58893;53.130;8.158;2022-11-15T09:53:37;13.10;91.50
71188;DHT22;58893;53.130;8.158;2022-11-15T09:56:14;13.20;91.60
71188;DHT22;58893;53.130;8.158;2022-11-15T10:04:09;13.30;91.80
71188;DHT22;58893;53.130;8.158;2022-11-15T10:06:38;13.30;91.80
71188;DHT22;58893;53.130;8.158;2022-11-15T10:09:14;13.30;91.80
71188;DHT22;58893;53.130;8.158;2022-11-15T10:11:40;13.30;91.80
71188;DHT22;58893;53.130;8.158;2022-11-15T10:14:20;13.40;91.90
71188;DHT22;58893;53.130;8.158;2022-11-15T10:25:09;13.50;92.20
71188;DHT22;58893;53.130;8.158;2022-11-15T10:27:38;13.60;92.50
71188;DHT22;58893;53.130;8.158;2022-11-15T10:30:11;13.60;92.20
71188;DHT22;58893;53.130;8.158;2022-11-15T10:32:37;13.70;92.20
71188;DHT22;58893;53.130;8.158;2022-11-15T10:35:27;13.70;92.10
71188;DHT22;58893;53.130;8.158;2022-11-15T10:38:06;13.70;92.00
71188;DHT22;58893;53.130;8.158;2022-11-15T10:40:31;13.80;92.00
71188;DHT22;58893;53.130;8.158;2022-11-15T10:45:36;13.80;91.90
71188;DHT22;58893;53.130;8.158;2022-11-15T10:50:44;13.80;91.80
71188;DHT22;58893;53.130;8.158;2022-11-15T10:53:45;13.90;91.90
71188;DHT22;58893;53.130;8.158;2022-11-15T10:56:13;13.90;91.80
71188;DHT22;58893;53.130;8.158;2022-11-15T10:58:51;13.90;91.80
71188;DHT22;58893;53.130;8.158;2022-11-15T11:03:45;13.90;92.10
71188;DHT22;58893;53.130;8.158;2022-11-15T11:08:37;13.90;91.80
71188;DHT22;58893;53.130;8.158;2022-11-15T11:11:04;14.00;91.90
71188;DHT22;58893;53.130;8.158;2022-11-15T11:21:14;14.10;92.20
71188;DHT22;58893;53.130;8.158;2022-11-15T11:24:01;14.10;92.20
71188;DHT22;58893;53.130;8.158;2022-11-15T11:30:17;14.10;92.10
71188;DHT22;58893;53.130;8.158;2022-11-15T11:33:03;14.20;92.10
71188;DHT22;58893;53.130;8.158;2022-11-15T11:41:15;14.20;92.00
71188;DHT22;58893;53.130;8.158;2022-11-15T11:49:15;14.30;91.80
71188;DHT22;58893;53.130;8.158;2022-11-15T11:54:39;14.40;91.60
71188;DHT22;58893;53.130;8.158;2022-11-15T11:57:17;14.40;91.50
71188;DHT22;58893;53.130;8.158;2022-11-15T11:59:55;14.50;91.50
71188;DHT22;58893;53.130;8.158;2022-11-15T12:02:41;14.50;91.30
71188;DHT22;58893;53.130;8.158;2022-11-15T12:05:16;14.50;91.10
71188;DHT22;58893;53.130;8.158;2022-11-15T12:07:46;14.50;90.90
71188;DHT22;58893;53.130;8.158;2022-11-15T12:10:24;14.60;90.80
71188;DHT22;58893;53.130;8.158;2022-11-15T12:13:08;14.60;90.60
71188;DHT22;58893;53.130;8.158;2022-11-15T12:15:41;14.60;90.40
71188;DHT22;58893;53.130;8.158;2022-11-15T12:18:13;14.60;90.20
71188;DHT22;58893;53.130;8.158;2022-11-15T12:20:52;14.70;90.10
71188;DHT22;58893;53.130;8.158;2022-11-15T12:23:34;14.70;89.90
71188;DHT22;58893;53.130;8.158;2022-11-15T12:26:06;14.70;89.50
71188;DHT22;58893;53.130;8.158;2022-11-15T12:28:53;14.70;89.30
71188;DHT22;58893;53.130;8.158;2022-11-15T12:36:52;14.80;89.00
71188;DHT22;58893;53.130;8.158;2022-11-15T12:39:18;14.80;88.20
71188;DHT22;58893;53.130;8.158;2022-11-15T12:52:03;15.00;83.50
71188;DHT22;58893;53.130;8.158;2022-11-15T12:55:08;15.00;82.60
71188;DHT22;58893;53.130;8.158;2022-11-15T12:57:32;15.00;81.90
71188;DHT22;58893;53.130;8.158;2022-11-15T13:00:37;15.00;81.60
71188;DHT22;58893;53.130;8.158;2022-11-15T13:03:19;15.00;81.20
71188;DHT22;58893;53.130;8.158;2022-11-15T13:08:49;15.00;81.30
71188;DHT22;58893;53.130;8.158;2022-11-15T13:11:47;15.00;80.20
71188;DHT22;58893;53.130;8.158;2022-11-15T13:19:47;14.90;78.80
71188;DHT22;58893;53.130;8.158;2022-11-15T13:22:13;14.90;78.50
71188;DHT22;58893;53.130;8.158;2022-11-15T13:25:00;14.90;78.40
71188;DHT22;58893;53.130;8.158;2022-11-15T13:27:26;14.90;78.40
71188;DHT22;58893;53.130;8.158;2022-11-15T13:29:53;14.90;78.40
71188;DHT22;58893;53.130;8.158;2022-11-15T13:32:19;14.90;78.60
71188;DHT22;58893;53.130;8.158;2022-11-15T13:34:49;14.80;78.50
71188;DHT22;58893;53.130;8.158;2022-11-15T13:39:47;14.90;78.70
71188;DHT22;58893;53.130;8.158;2022-11-15T13:42:17;14.90;78.60
71188;DHT22;58893;53.130;8.158;2022-11-15T13:45:01;14.90;78.20
71188;DHT22;58893;53.130;8.158;2022-11-15T13:47:28;14.90;78.60
71188;DHT22;58893;53.130;8.158;2022-11-15T13:49:57;14.90;78.30
71188;DHT22;58893;53.130;8.158;2022-11-15T13:52:27;14.90;78.20
71188;DHT22;58893;53.130;8.158;2022-11-15T13:55:26;14.90;77.60
71188;DHT22;58893;53.130;8.158;2022-11-15T13:57:56;14.90;77.30
71188;DHT22;58893;53.130;8.158;2022-11-15T14:00:36;14.90;76.70
71188;DHT22;58893;53.130;8.158;2022-11-15T14:03:26;14.90;76.50
71188;DHT22;58893;53.130;8.158;2022-11-15T14:08:33;14.80;75.40
71188;DHT22;58893;53.130;8.158;2022-11-15T14:13:36;14.80;75.00
71188;DHT22;58893;53.130;8.158;2022-11-15T14:16:15;14.80;74.90
71188;DHT22;58893;53.130;8.158;2022-11-15T14:18:50;14.80;74.80
71188;DHT22;58893;53.130;8.158;2022-11-15T14:21:17;14.70;74.80
71188;DHT22;58893;53.130;8.158;2022-11-15T14:23:43;14.70;74.90
71188;DHT22;58893;53.130;8.158;2022-11-15T14:26:29;14.70;75.00
71188;DHT22;58893;53.130;8.158;2022-11-15T14:28:55;14.70;74.90
71188;DHT22;58893;53.130;8.158;2022-11-15T14:31:21;14.70;75.30
71188;DHT22;58893;53.130;8.158;2022-11-15T14:33:47;14.60;76.00
71188;DHT22;58893;53.130;8.158;2022-11-15T14:36:20;14.60;74.50
71188;DHT22;58893;53.130;8.158;2022-11-15T14:38:47;14.60;74.50
71188;DHT22;58893;53.130;8.158;2022-11-15T14:41:23;14.60;74.60
71188;DHT22;58893;53.130;8.158;2022-11-15T14:43:50;14.50;74.50
71188;DHT22;58893;53.130;8.158;2022-11-15T14:46:16;14.50;74.50
71188;DHT22;58893;53.130;8.158;2022-11-15T14:48:42;14.50;74.50
71188;DHT22;58893;53.130;8.158;2022-11-15T14:51:18;14.40;74.40
71188;DHT22;58893;53.130;8.158;2022-11-15T14:53:45;14.40;74.30
71188;DHT22;58893;53.130;8.158;2022-11-15T14:56:11;14.40;74.20
71188;DHT22;58893;53.130;8.158;2022-11-15T14:58:37;14.40;74.20
71188;DHT22;58893;53.130;8.158;2022-11-15T15:01:20;14.40;74.10
71188;DHT22;58893;53.130;8.158;2022-11-15T15:03:46;14.40;74.10
71188;DHT22;58893;53.130;8.158;2022-11-15T15:06:12;14.30;74.00
71188;DHT22;58893;53.130;8.158;2022-11-15T15:08:41;14.30;73.90
71188;DHT22;58893;53.130;8.158;2022-11-15T15:11:15;14.30;73.90
71188;DHT22;58893;53.130;8.158;2022-11-15T15:13:41;14.30;73.90
71188;DHT22;58893;53.130;8.158;2022-11-15T15:16:07;14.30;74.40
71188;DHT22;58893;53.130;8.158;2022-11-15T15:18:32;14.30;73.80
71188;DHT22;58893;53.130;8.158;2022-11-15T15:20:59;14.30;73.80
71188;DHT22;58893;53.130;8.158;2022-11-15T15:23:32;14.30;73.70
71188;DHT22;58893;53.130;8.158;2022-11-15T15:25:58;14.30;73.70
71188;DHT22;58893;53.130;8.158;2022-11-15T15:28:24;14.30;73.60
71188;DHT22;58893;53.130;8.158;2022-11-15T15:30:49;14.30;73.50
71188;DHT22;58893;53.130;8.158;2022-11-15T15:33:15;14.20;73.20
71188;DHT22;58893;53.130;8.158;2022-11-15T15:35:41;14.20;73.10
71188;DHT22;58893;53.130;8.158;2022-11-15T15:38:13;14.20;73.00
71188;DHT22;58893;53.130;8.158;2022-11-15T15:40:40;14.20;73.30
71188;DHT22;58893;53.130;8.158;2022-11-15T15:43:06;14.20;73.00
71188;DHT22;58893;53.130;8.158;2022-11-15T15:45:36;14.10;73.00
71188;DHT22;58893;53.130;8.158;2022-11-15T15:48:03;14.20;73.30
71188;DHT22;58893;53.130;8.158;2022-11-15T15:50:32;14.10;73.30
71188;DHT22;58893;53.130;8.158;2022-11-15T15:52:59;14.10;73.20
71188;DHT22;58893;53.130;8.158;2022-11-15T15:55:26;14.10;73.40
71188;DHT22;58893;53.130;8.158;2022-11-15T15:57:52;14.10;73.20
71188;DHT22;58893;53.130;8.158;2022-11-15T16:00:19;14.10;72.80
71188;DHT22;58893;53.130;8.158;2022-11-15T16:02:45;14.10;72.50
71188;DHT22;58893;53.130;8.158;2022-11-15T16:05:12;14.10;72.50
71188;DHT22;58893;53.130;8.158;2022-11-15T16:07:38;14.00;72.10
71188;DHT22;58893;53.130;8.158;2022-11-15T16:12:44;14.10;71.90
71188;DHT22;58893;53.130;8.158;2022-11-15T16:15:10;14.00;71.60
71188;DHT22;58893;53.130;8.158;2022-11-15T16:17:39;14.00;71.50
71188;DHT22;58893;53.130;8.158;2022-11-15T16:20:08;14.00;71.50
71188;DHT22;58893;53.130;8.158;2022-11-15T16:22:39;14.00;71.40
71188;DHT22;58893;53.130;8.158;2022-11-15T16:25:05;13.90;71.60
71188;DHT22;58893;53.130;8.158;2022-11-15T16:27:31;13.90;71.50
71188;DHT22;58893;53.130;8.158;2022-11-15T16:29:57;13.90;71.60
71188;DHT22;58893;53.130;8.158;2022-11-15T16:32:22;13.90;71.40
71188;DHT22;58893;53.130;8.158;2022-11-15T16:34:48;13.80;71.10
71188;DHT22;58893;53.130;8.158;2022-11-15T16:37:23;13.80;70.80
71188;DHT22;58893;53.130;8.158;2022-11-15T16:39:49;13.80;70.90
71188;DHT22;58893;53.130;8.158;2022-11-15T16:42:15;13.80;71.00
71188;DHT22;58893;53.130;8.158;2022-11-15T16:44:40;13.80;70.90
71188;DHT22;58893;53.130;8.158;2022-11-15T16:47:17;13.80;71.10
71188;DHT22;58893;53.130;8.158;2022-11-15T16:49:47;13.80;71.10
71188;DHT22;58893;53.130;8.158;2022-11-15T16:52:13;13.80;70.50
71188;DHT22;58893;53.130;8.158;2022-11-15T16:54:38;13.80;70.60
71188;DHT22;58893;53.130;8.158;2022-11-15T16:57:04;13.70;70.50
71188;DHT22;58893;53.130;8.158;2022-11-15T16:59:30;13.70;70.60
71188;DHT22;58893;53.130;8.158;2022-11-15T17:01:57;13.70;70.60
71188;DHT22;58893;53.130;8.158;2022-11-15T17:04:23;13.70;70.50
71188;DHT22;58893;53.130;8.158;2022-11-15T17:06:49;13.70;70.60
71188;DHT22;58893;53.130;8.158;2022-11-15T17:09:20;13.70;70.70
71188;DHT22;58893;53.130;8.158;2022-11-15T17:11:49;13.70;70.70
71188;DHT22;58893;53.130;8.158;2022-11-15T17:14:15;13.70;71.50
71188;DHT22;58893;53.130;8.158;2022-11-15T17:16:41;13.70;70.90
71188;DHT22;58893;53.130;8.158;2022-11-15T17:19:20;13.70;71.00
71188;DHT22;58893;53.130;8.158;2022-11-15T17:21:46;13.70;71.10
71188;DHT22;58893;53.130;8.158;2022-11-15T17:24:13;13.70;71.30
71188;DHT22;58893;53.130;8.158;2022-11-15T17:26:39;13.60;71.40
71188;DHT22;58893;53.130;8.158;2022-11-15T17:29:05;13.60;71.50
71188;DHT22;58893;53.130;8.158;2022-11-15T17:31:36;13.60;71.70
71188;DHT22;58893;53.130;8.158;2022-11-15T17:34:03;13.60;71.80
71188;DHT22;58893;53.130;8.158;2022-11-15T17:36:29;13.60;72.60
71188;DHT22;58893;53.130;8.158;2022-11-15T17:38:55;13.60;72.20